sensor_id;sensor_type;location;lat;lon;timestamp;temperature;humidity
76293;DHT22;67256;51.154;4.164;2023-03-26T00:01:56;13.10;65.40
76293;DHT22;67256;51.154;4.164;2023-03-26T00:04:23;13.10;65.30
76293;DHT22;67256;51.154;4.164;2023-03-26T00:06:50;13.20;65.20
76293;DHT22;67256;51.154;4.164;2023-03-26T00:09:17;13.20;65.10
76293;DHT22;67256;51.154;4.164;2023-03-26T00:11:43;13.10;65.20
76293;DHT22;67256;51.154;4.164;2023-03-26T00:14:11;13.10;65.20
76293;DHT22;67256;51.154;4.164;2023-03-26T00:16:38;13.20;65.90
76293;DHT22;67256;51.154;4.164;2023-03-26T00:19:07;13.20;65.30
76293;DHT22;67256;51.154;4.164;2023-03-26T00:21:33;13.20;65.30
76293;DHT22;67256;51.154;4.164;2023-03-26T00:24:03;13.20;65.40
76293;DHT22;67256;51.154;4.164;2023-03-26T00:26:31;13.20;65.60
76293;DHT22;67256;51.154;4.164;2023-03-26T00:28:58;13.20;65.60
76293;DHT22;67256;51.154;4.164;2023-03-26T00:31:25;13.10;65.90
76293;DHT22;67256;51.154;4.164;2023-03-26T00:33:52;13.10;65.90
76293;DHT22;67256;51.154;4.164;2023-03-26T00:36:22;13.20;65.90
76293;DHT22;67256;51.154;4.164;2023-03-26T00:38:49;13.20;65.70
76293;DHT22;67256;51.154;4.164;2023-03-26T00:41:18;13.30;65.80
76293;DHT22;67256;51.154;4.164;2023-03-26T00:43:49;13.30;66.00
76293;DHT22;67256;51.154;4.164;2023-03-26T00:46:16;13.30;66.50
76293;DHT22;67256;51.154;4.164;2023-03-26T00:48:42;13.30;66.50
76293;DHT22;67256;51.154;4.164;2023-03-26T00:51:10;13.30;66.80
76293;DHT22;67256;51.154;4.164;2023-03-26T00:53:36;13.20;67.20
76293;DHT22;67256;51.154;4.164;2023-03-26T00:56:04;13.30;67.10
76293;DHT22;67256;51.154;4.164;2023-03-26T00:58:31;13.30;67.30
76293;DHT22;67256;51.154;4.164;2023-03-26T01:01:04;13.30;67.40
76293;DHT22;67256;51.154;4.164;2023-03-26T01:03:32;13.30;67.60
76293;DHT22;67256;51.154;4.164;2023-03-26T01:06:01;13.30;67.90
76293;DHT22;67256;51.154;4.164;2023-03-26T01:11:08;13.20;68.00
76293;DHT22;67256;51.154;4.164;2023-03-26T01:13:42;13.20;68.10
76293;DHT22;67256;51.154;4.164;2023-03-26T01:16:20;13.20;68.10
76293;DHT22;67256;51.154;4.164;2023-03-26T01:18:49;13.30;68.00
76293;DHT22;67256;51.154;4.164;2023-03-26T01:21:20;13.30;67.90
76293;DHT22;67256;51.154;4.164;2023-03-26T01:24:03;13.30;67.80
76293;DHT22;67256;51.154;4.164;2023-03-26T01:29:03;13.30;67.60
76293;DHT22;67256;51.154;4.164;2023-03-26T01:31:32;13.30;67.70
76293;DHT22;67256;51.154;4.164;2023-03-26T01:34:49;13.30;67.60
76293;DHT22;67256;51.154;4.164;2023-03-26T01:40:12;13.30;67.70
76293;DHT22;67256;51.154;4.164;2023-03-26T01:45:47;13.30;67.90
76293;DHT22;67256;51.154;4.164;2023-03-26T01:48:14;13.30;68.20
76293;DHT22;67256;51.154;4.164;2023-03-26T01:50:40;13.30;68.30
76293;DHT22;67256;51.154;4.164;2023-03-26T01:53:08;13.30;68.40
76293;DHT22;67256;51.154;4.164;2023-03-26T01:55:52;13.30;68.30
76293;DHT22;67256;51.154;4.164;2023-03-26T02:03:28;13.30;68.40
76293;DHT22;67256;51.154;4.164;2023-03-26T02:06:05;13.20;68.30
76293;DHT22;67256;51.154;4.164;2023-03-26T02:08:38;13.20;68.30
76293;DHT22;67256;51.154;4.164;2023-03-26T02:11:11;13.20;68.20
76293;DHT22;67256;51.154;4.164;2023-03-26T02:13:40;13.20;68.20
76293;DHT22;67256;51.154;4.164;2023-03-26T02:16:08;13.20;68.20
76293;DHT22;67256;51.154;4.164;2023-03-26T02:18:37;13.20;68.20
76293;DHT22;67256;51.154;4.164;2023-03-26T02:21:09;13.20;68.30
76293;DHT22;67256;51.154;4.164;2023-03-26T02:23:40;13.10;68.30
76293;DHT22;67256;51.154;4.164;2023-03-26T02:26:07;13.10;68.40
76293;DHT22;67256;51.154;4.164;2023-03-26T02:28:33;13.10;68.10
76293;DHT22;67256;51.154;4.164;2023-03-26T02:30:59;13.10;68.30
76293;DHT22;67256;51.154;4.164;2023-03-26T02:33:28;13.10;68.10
76293;DHT22;67256;51.154;4.164;2023-03-26T02:35:55;13.10;68.10
76293;DHT22;67256;51.154;4.164;2023-03-26T02:38:24;13.10;67.90
76293;DHT22;67256;51.154;4.164;2023-03-26T02:40:52;13.10;68.00
76293;DHT22;67256;51.154;4.164;2023-03-26T02:43:19;13.10;67.90
76293;DHT22;67256;51.154;4.164;2023-03-26T02:45:45;13.00;67.80
76293;DHT22;67256;51.154;4.164;2023-03-26T02:48:11;13.00;67.90
76293;DHT22;67256;51.154;4.164;2023-03-26T02:50:37;13.00;68.00
76293;DHT22;67256;51.154;4.164;2023-03-26T02:53:03;13.00;68.00
76293;DHT22;67256;51.154;4.164;2023-03-26T02:55:30;13.00;68.50
76293;DHT22;67256;51.154;4.164;2023-03-26T02:57:56;13.00;67.90
76293;DHT22;67256;51.154;4.164;2023-03-26T03:00:23;13.00;68.00
76293;DHT22;67256;51.154;4.164;2023-03-26T03:02:50;13.00;68.00
76293;DHT22;67256;51.154;4.164;2023-03-26T03:05:18;13.00;68.00
76293;DHT22;67256;51.154;4.164;2023-03-26T03:07:44;13.00;68.00
76293;DHT22;67256;51.154;4.164;2023-03-26T03:10:12;13.00;68.20
76293;DHT22;67256;51.154;4.164;2023-03-26T03:12:41;13.00;68.10
76293;DHT22;67256;51.154;4.164;2023-03-26T03:15:08;13.00;67.90
76293;DHT22;67256;51.154;4.164;2023-03-26T03:17:33;13.00;67.90
76293;DHT22;67256;51.154;4.164;2023-03-26T03:19:59;12.90;67.80
76293;DHT22;67256;51.154;4.164;2023-03-26T03:22:25;13.00;67.80
76293;DHT22;67256;51.154;4.164;2023-03-26T03:24:51;13.00;67.80
76293;DHT22;67256;51.154;4.164;2023-03-26T03:27:17;13.00;67.60
76293;DHT22;67256;51.154;4.164;2023-03-26T03:29:46;13.00;67.70
76293;DHT22;67256;51.154;4.164;2023-03-26T03:32:12;13.00;67.60
76293;DHT22;67256;51.154;4.164;2023-03-26T03:34:38;12.90;67.50
76293;DHT22;67256;51.154;4.164;2023-03-26T03:37:04;12.90;67.30
76293;DHT22;67256;51.154;4.164;2023-03-26T03:39:31;12.90;67.10
76293;DHT22;67256;51.154;4.164;2023-03-26T03:41:57;12.90;67.30
76293;DHT22;67256;51.154;4.164;2023-03-26T03:44:22;12.90;67.20
76293;DHT22;67256;51.154;4.164;2023-03-26T03:46:48;12.90;67.20
76293;DHT22;67256;51.154;4.164;2023-03-26T03:49:18;12.90;67.30
76293;DHT22;67256;51.154;4.164;2023-03-26T03:51:44;12.90;67.30
76293;DHT22;67256;51.154;4.164;2023-03-26T03:54:09;12.90;67.60
76293;DHT22;67256;51.154;4.164;2023-03-26T03:56:35;12.80;67.60
76293;DHT22;67256;51.154;4.164;2023-03-26T03:59:02;12.80;67.90
76293;DHT22;67256;51.154;4.164;2023-03-26T04:01:28;12.80;67.90
76293;DHT22;67256;51.154;4.164;2023-03-26T04:03:56;12.90;68.00
76293;DHT22;67256;51.154;4.164;2023-03-26T04:06:22;12.80;68.00
76293;DHT22;67256;51.154;4.164;2023-03-26T04:08:50;12.80;68.00
76293;DHT22;67256;51.154;4.164;2023-03-26T04:11:16;12.90;68.20
76293;DHT22;67256;51.154;4.164;2023-03-26T04:13:43;12.80;68.30
76293;DHT22;67256;51.154;4.164;2023-03-26T04:16:10;12.80;68.30
76293;DHT22;67256;51.154;4.164;2023-03-26T04:18:36;12.80;68.30
76293;DHT22;67256;51.154;4.164;2023-03-26T04:21:04;12.80;68.40
76293;DHT22;67256;51.154;4.164;2023-03-26T04:23:34;12.80;68.40
76293;DHT22;67256;51.154;4.164;2023-03-26T04:26:05;12.80;68.50
76293;DHT22;67256;51.154;4.164;2023-03-26T04:28:44;12.80;68.50
76293;DHT22;67256;51.154;4.164;2023-03-26T04:31:17;12.80;69.10
76293;DHT22;67256;51.154;4.164;2023-03-26T04:33:50;12.80;68.70
76293;DHT22;67256;51.154;4.164;2023-03-26T04:36:28;12.70;68.80
76293;DHT22;67256;51.154;4.164;2023-03-26T04:38:55;12.70;68.80
76293;DHT22;67256;51.154;4.164;2023-03-26T04:41:23;12.70;68.80
76293;DHT22;67256;51.154;4.164;2023-03-26T04:43:52;12.70;68.80
76293;DHT22;67256;51.154;4.164;2023-03-26T04:46:21;12.70;68.90
76293;DHT22;67256;51.154;4.164;2023-03-26T04:48:52;12.70;69.00
76293;DHT22;67256;51.154;4.164;2023-03-26T04:51:22;12.70;69.00
76293;DHT22;67256;51.154;4.164;2023-03-26T04:53:57;12.70;68.80
76293;DHT22;67256;51.154;4.164;2023-03-26T04:59:02;12.70;68.70
76293;DHT22;67256;51.154;4.164;2023-03-26T05:01:28;12.70;68.70
76293;DHT22;67256;51.154;4.164;2023-03-26T05:03:56;12.70;68.90
76293;DHT22;67256;51.154;4.164;2023-03-26T05:06:27;12.70;69.00
76293;DHT22;67256;51.154;4.164;2023-03-26T05:08:55;12.60;69.10
76293;DHT22;67256;51.154;4.164;2023-03-26T05:11:23;12.60;69.20
76293;DHT22;67256;51.154;4.164;2023-03-26T05:13:50;12.60;69.30
76293;DHT22;67256;51.154;4.164;2023-03-26T05:16:17;12.60;69.30
76293;DHT22;67256;51.154;4.164;2023-03-26T05:18:43;12.70;69.40
76293;DHT22;67256;51.154;4.164;2023-03-26T05:21:12;12.60;69.30
76293;DHT22;67256;51.154;4.164;2023-03-26T05:23:40;12.70;69.40
76293;DHT22;67256;51.154;4.164;2023-03-26T05:26:09;12.60;69.30
76293;DHT22;67256;51.154;4.164;2023-03-26T05:28:36;12.60;69.40
76293;DHT22;67256;51.154;4.164;2023-03-26T05:31:03;12.60;69.90
76293;DHT22;67256;51.154;4.164;2023-03-26T05:33:30;12.60;70.00
76293;DHT22;67256;51.154;4.164;2023-03-26T05:36:02;12.50;69.80
76293;DHT22;67256;51.154;4.164;2023-03-26T05:38:31;12.50;69.90
76293;DHT22;67256;51.154;4.164;2023-03-26T05:41:04;12.50;70.00
76293;DHT22;67256;51.154;4.164;2023-03-26T05:43:32;12.60;70.00
76293;DHT22;67256;51.154;4.164;2023-03-26T05:45:58;12.50;69.90
76293;DHT22;67256;51.154;4.164;2023-03-26T05:48:25;12.60;69.90
76293;DHT22;67256;51.154;4.164;2023-03-26T05:50:52;12.50;69.90
76293;DHT22;67256;51.154;4.164;2023-03-26T05:53:19;12.50;70.20
76293;DHT22;67256;51.154;4.164;2023-03-26T05:55:46;12.50;69.90
76293;DHT22;67256;51.154;4.164;2023-03-26T05:58:15;12.50;69.70
76293;DHT22;67256;51.154;4.164;2023-03-26T06:00:41;12.60;69.80
76293;DHT22;67256;51.154;4.164;2023-03-26T06:03:07;12.50;69.70
76293;DHT22;67256;51.154;4.164;2023-03-26T06:05:38;12.50;69.80
76293;DHT22;67256;51.154;4.164;2023-03-26T06:08:04;12.50;69.70
76293;DHT22;67256;51.154;4.164;2023-03-26T06:10:31;12.50;69.60
76293;DHT22;67256;51.154;4.164;2023-03-26T06:12:58;12.50;70.10
76293;DHT22;67256;51.154;4.164;2023-03-26T06:15:24;12.50;69.50
76293;DHT22;67256;51.154;4.164;2023-03-26T06:17:50;12.40;70.20
76293;DHT22;67256;51.154;4.164;2023-03-26T06:20:17;12.40;70.00
76293;DHT22;67256;51.154;4.164;2023-03-26T06:22:43;12.30;70.30
76293;DHT22;67256;51.154;4.164;2023-03-26T06:25:09;12.30;70.00
76293;DHT22;67256;51.154;4.164;2023-03-26T06:27:36;12.30;69.90
76293;DHT22;67256;51.154;4.164;2023-03-26T06:30:02;12.30;70.00
76293;DHT22;67256;51.154;4.164;2023-03-26T06:32:29;12.30;69.50
76293;DHT22;67256;51.154;4.164;2023-03-26T06:34:55;12.20;69.60
76293;DHT22;67256;51.154;4.164;2023-03-26T06:37:21;12.00;69.90
76293;DHT22;67256;51.154;4.164;2023-03-26T06:39:46;12.00;69.60
76293;DHT22;67256;51.154;4.164;2023-03-26T06:42:12;12.10;69.60
76293;DHT22;67256;51.154;4.164;2023-03-26T06:44:39;12.10;70.10
76293;DHT22;67256;51.154;4.164;2023-03-26T06:47:05;12.20;69.10
76293;DHT22;67256;51.154;4.164;2023-03-26T06:49:31;12.10;69.10
76293;DHT22;67256;51.154;4.164;2023-03-26T06:51:58;12.10;69.00
76293;DHT22;67256;51.154;4.164;2023-03-26T06:54:27;12.20;67.90
76293;DHT22;67256;51.154;4.164;2023-03-26T06:56:53;12.00;69.00
76293;DHT22;67256;51.154;4.164;2023-03-26T06:59:21;12.10;69.20
76293;DHT22;67256;51.154;4.164;2023-03-26T07:01:48;12.10;69.00
76293;DHT22;67256;51.154;4.164;2023-03-26T07:04:14;12.10;69.30
76293;DHT22;67256;51.154;4.164;2023-03-26T07:06:40;12.20;68.80
76293;DHT22;67256;51.154;4.164;2023-03-26T07:09:06;12.20;68.70
76293;DHT22;67256;51.154;4.164;2023-03-26T07:11:32;12.20;68.70
76293;DHT22;67256;51.154;4.164;2023-03-26T07:13:57;12.00;69.80
76293;DHT22;67256;51.154;4.164;2023-03-26T07:16:24;12.10;69.60
76293;DHT22;67256;51.154;4.164;2023-03-26T07:18:50;12.10;69.30
76293;DHT22;67256;51.154;4.164;2023-03-26T07:21:16;12.10;69.10
76293;DHT22;67256;51.154;4.164;2023-03-26T07:23:44;12.10;69.70
76293;DHT22;67256;51.154;4.164;2023-03-26T07:29:00;12.20;69.60
76293;DHT22;67256;51.154;4.164;2023-03-26T07:31:49;12.10;69.60
76293;DHT22;67256;51.154;4.164;2023-03-26T07:37:31;12.20;69.60
76293;DHT22;67256;51.154;4.164;2023-03-26T07:45:42;12.10;69.30
76293;DHT22;67256;51.154;4.164;2023-03-26T07:48:18;12.20;69.40
76293;DHT22;67256;51.154;4.164;2023-03-26T07:50:46;12.20;69.40
76293;DHT22;67256;51.154;4.164;2023-03-26T07:53:12;12.20;69.70
76293;DHT22;67256;51.154;4.164;2023-03-26T08:07:21;12.30;69.50
76293;DHT22;67256;51.154;4.164;2023-03-26T08:21:07;12.20;70.10
76293;DHT22;67256;51.154;4.164;2023-03-26T08:31:49;12.10;69.70
76293;DHT22;67256;51.154;4.164;2023-03-26T08:34:15;12.10;70.00
76293;DHT22;67256;51.154;4.164;2023-03-26T08:36:41;12.00;69.80
76293;DHT22;67256;51.154;4.164;2023-03-26T08:39:07;11.90;70.60
76293;DHT22;67256;51.154;4.164;2023-03-26T08:47:59;11.70;71.30
76293;DHT22;67256;51.154;4.164;2023-03-26T08:59:34;11.50;72.10
76293;DHT22;67256;51.154;4.164;2023-03-26T09:02:13;11.50;71.50
76293;DHT22;67256;51.154;4.164;2023-03-26T09:24:36;11.20;72.70
76293;DHT22;67256;51.154;4.164;2023-03-26T09:37:58;11.50;72.70
76293;DHT22;67256;51.154;4.164;2023-03-26T09:40:35;11.30;72.60
76293;DHT22;67256;51.154;4.164;2023-03-26T09:46:01;11.20;72.90
76293;DHT22;67256;51.154;4.164;2023-03-26T09:51:35;10.90;73.50
76293;DHT22;67256;51.154;4.164;2023-03-26T10:00:47;11.10;73.90
76293;DHT22;67256;51.154;4.164;2023-03-26T10:14:31;11.40;72.40
76293;DHT22;67256;51.154;4.164;2023-03-26T10:19:52;11.40;71.20
76293;DHT22;67256;51.154;4.164;2023-03-26T10:22:35;11.40;71.20
76293;DHT22;67256;51.154;4.164;2023-03-26T10:30:27;11.30;70.30
76293;DHT22;67256;51.154;4.164;2023-03-26T10:49:32;11.20;71.60
76293;DHT22;67256;51.154;4.164;2023-03-26T10:52:12;11.20;72.30
76293;DHT22;67256;51.154;4.164;2023-03-26T10:57:37;11.30;72.90
76293;DHT22;67256;51.154;4.164;2023-03-26T11:06:47;10.90;73.60
76293;DHT22;67256;51.154;4.164;2023-03-26T11:09:39;10.90;74.30
76293;DHT22;67256;51.154;4.164;2023-03-26T11:17:55;10.80;75.00
76293;DHT22;67256;51.154;4.164;2023-03-26T11:26:14;11.00;74.10
76293;DHT22;67256;51.154;4.164;2023-03-26T11:28:46;11.10;73.30
76293;DHT22;67256;51.154;4.164;2023-03-26T11:31:31;11.00;73.00
76293;DHT22;67256;51.154;4.164;2023-03-26T11:34:03;10.90;74.60
76293;DHT22;67256;51.154;4.164;2023-03-26T11:36:37;11.20;74.50
76293;DHT22;67256;51.154;4.164;2023-03-26T11:39:08;11.30;73.20
76293;DHT22;67256;51.154;4.164;2023-03-26T11:41:35;11.30;71.80
76293;DHT22;67256;51.154;4.164;2023-03-26T11:44:21;11.10;72.90
76293;DHT22;67256;51.154;4.164;2023-03-26T11:46:52;10.90;73.30
76293;DHT22;67256;51.154;4.164;2023-03-26T11:49:23;10.90;74.30
76293;DHT22;67256;51.154;4.164;2023-03-26T11:51:50;10.90;74.40
76293;DHT22;67256;51.154;4.164;2023-03-26T11:54:16;10.80;73.10
76293;DHT22;67256;51.154;4.164;2023-03-26T11:56:56;10.80;73.20
76293;DHT22;67256;51.154;4.164;2023-03-26T12:09:51;10.70;74.10
76293;DHT22;67256;51.154;4.164;2023-03-26T12:12:17;10.70;73.60
76293;DHT22;67256;51.154;4.164;2023-03-26T12:14:44;10.80;73.20
76293;DHT22;67256;51.154;4.164;2023-03-26T12:17:24;10.70;74.10
76293;DHT22;67256;51.154;4.164;2023-03-26T12:19:52;10.80;72.90
76293;DHT22;67256;51.154;4.164;2023-03-26T12:22:38;10.90;73.40
76293;DHT22;67256;51.154;4.164;2023-03-26T12:25:28;11.10;72.60
76293;DHT22;67256;51.154;4.164;2023-03-26T12:31:02;10.90;71.20
76293;DHT22;67256;51.154;4.164;2023-03-26T12:33:33;10.90;72.90
76293;DHT22;67256;51.154;4.164;2023-03-26T12:36:15;10.90;71.90
76293;DHT22;67256;51.154;4.164;2023-03-26T12:38:42;11.00;72.90
76293;DHT22;67256;51.154;4.164;2023-03-26T12:41:11;11.00;72.70
76293;DHT22;67256;51.154;4.164;2023-03-26T12:43:48;11.00;73.70
76293;DHT22;67256;51.154;4.164;2023-03-26T12:49:01;11.30;72.90
76293;DHT22;67256;51.154;4.164;2023-03-26T12:54:19;11.40;72.40
76293;DHT22;67256;51.154;4.164;2023-03-26T13:07:24;11.30;71.10
76293;DHT22;67256;51.154;4.164;2023-03-26T13:12:39;11.30;70.20
76293;DHT22;67256;51.154;4.164;2023-03-26T13:15:15;11.30;70.10
76293;DHT22;67256;51.154;4.164;2023-03-26T13:17:53;11.20;71.00
76293;DHT22;67256;51.154;4.164;2023-03-26T13:47:22;10.70;75.10
76293;DHT22;67256;51.154;4.164;2023-03-26T13:49:57;10.70;76.20
76293;DHT22;67256;51.154;4.164;2023-03-26T13:55:15;10.50;76.90
76293;DHT22;67256;51.154;4.164;2023-03-26T13:57:46;10.70;77.00
76293;DHT22;67256;51.154;4.164;2023-03-26T14:00:19;10.90;76.30
76293;DHT22;67256;51.154;4.164;2023-03-26T14:03:07;11.00;75.70
76293;DHT22;67256;51.154;4.164;2023-03-26T14:05:47;10.90;76.10
76293;DHT22;67256;51.154;4.164;2023-03-26T14:08:21;10.90;76.80
76293;DHT22;67256;51.154;4.164;2023-03-26T14:11:03;10.80;76.80
76293;DHT22;67256;51.154;4.164;2023-03-26T14:13:56;11.00;76.10
76293;DHT22;67256;51.154;4.164;2023-03-26T14:16:33;11.00;75.40
76293;DHT22;67256;51.154;4.164;2023-03-26T14:22:29;11.00;76.20
76293;DHT22;67256;51.154;4.164;2023-03-26T14:27:43;10.90;78.20
76293;DHT22;67256;51.154;4.164;2023-03-26T14:52:09;9.90;85.30
76293;DHT22;67256;51.154;4.164;2023-03-26T14:54:42;9.80;85.40
76293;DHT22;67256;51.154;4.164;2023-03-26T15:20:43;9.90;82.80
76293;DHT22;67256;51.154;4.164;2023-03-26T15:23:51;9.90;82.90
76293;DHT22;67256;51.154;4.164;2023-03-26T15:31:49;9.90;81.30
76293;DHT22;67256;51.154;4.164;2023-03-26T15:34:41;9.80;81.00
76293;DHT22;67256;51.154;4.164;2023-03-26T15:43:14;9.80;80.10
76293;DHT22;67256;51.154;4.164;2023-03-26T15:48:48;9.80;79.10
76293;DHT22;67256;51.154;4.164;2023-03-26T15:57:22;9.60;78.30
76293;DHT22;67256;51.154;4.164;2023-03-26T16:05:52;9.60;73.60
76293;DHT22;67256;51.154;4.164;2023-03-26T16:10:59;9.70;72.90
76293;DHT22;67256;51.154;4.164;2023-03-26T16:13:35;9.80;71.40
76293;DHT22;67256;51.154;4.164;2023-03-26T16:21:37;9.90;71.70
76293;DHT22;67256;51.154;4.164;2023-03-26T16:29:28;10.10;71.10
76293;DHT22;67256;51.154;4.164;2023-03-26T16:35:07;10.20;71.90
76293;DHT22;67256;51.154;4.164;2023-03-26T16:37:48;10.10;70.70
76293;DHT22;67256;51.154;4.164;2023-03-26T16:46:07;9.70;71.90
76293;DHT22;67256;51.154;4.164;2023-03-26T16:51:08;9.80;72.50
76293;DHT22;67256;51.154;4.164;2023-03-26T17:02:34;9.80;71.30
76293;DHT22;67256;51.154;4.164;2023-03-26T17:08:20;9.80;71.20
76293;DHT22;67256;51.154;4.164;2023-03-26T17:11:36;9.60;70.80
76293;DHT22;67256;51.154;4.164;2023-03-26T17:16:14;9.60;71.30
76293;DHT22;67256;51.154;4.164;2023-03-26T17:32:57;9.50;71.00
76293;DHT22;67256;51.154;4.164;2023-03-26T17:41:04;9.60;70.50
76293;DHT22;67256;51.154;4.164;2023-03-26T17:46:11;9.50;70.30
76293;DHT22;67256;51.154;4.164;2023-03-26T17:48:39;9.50;69.20
76293;DHT22;67256;51.154;4.164;2023-03-26T17:51:27;9.40;69.60
76293;DHT22;67256;51.154;4.164;2023-03-26T17:53:54;9.40;69.30
76293;DHT22;67256;51.154;4.164;2023-03-26T17:56:26;9.40;68.80
76293;DHT22;67256;51.154;4.164;2023-03-26T17:58:54;9.40;68.90
76293;DHT22;67256;51.154;4.164;2023-03-26T18:01:37;9.30;68.20
76293;DHT22;67256;51.154;4.164;2023-03-26T18:04:07;9.30;68.70
76293;DHT22;67256;51.154;4.164;2023-03-26T18:17:42;9.40;67.60
76293;DHT22;67256;51.154;4.164;2023-03-26T18:20:25;9.40;67.20
76293;DHT22;67256;51.154;4.164;2023-03-26T18:22:52;9.40;67.50
76293;DHT22;67256;51.154;4.164;2023-03-26T18:25:29;9.20;67.10
76293;DHT22;67256;51.154;4.164;2023-03-26T18:27:56;9.30;67.30
76293;DHT22;67256;51.154;4.164;2023-03-26T18:30:24;9.30;67.20
76293;DHT22;67256;51.154;4.164;2023-03-26T18:33:14;9.20;65.90
76293;DHT22;67256;51.154;4.164;2023-03-26T18:35:48;9.20;66.70
76293;DHT22;67256;51.154;4.164;2023-03-26T18:38:18;9.30;66.50
76293;DHT22;67256;51.154;4.164;2023-03-26T18:40:45;9.20;66.10
76293;DHT22;67256;51.154;4.164;2023-03-26T18:43:17;9.20;65.20
76293;DHT22;67256;51.154;4.164;2023-03-26T18:45:45;9.20;65.50
76293;DHT22;67256;51.154;4.164;2023-03-26T18:48:20;9.20;65.70
76293;DHT22;67256;51.154;4.164;2023-03-26T18:50:53;9.20;65.50
76293;DHT22;67256;51.154;4.164;2023-03-26T18:53:25;9.20;65.50
76293;DHT22;67256;51.154;4.164;2023-03-26T18:55:55;9.00;65.10
76293;DHT22;67256;51.154;4.164;2023-03-26T18:58:29;9.10;64.60
76293;DHT22;67256;51.154;4.164;2023-03-26T19:01:02;8.90;62.60
76293;DHT22;67256;51.154;4.164;2023-03-26T19:03:32;8.70;62.70
76293;DHT22;67256;51.154;4.164;2023-03-26T19:06:00;8.70;62.20
76293;DHT22;67256;51.154;4.164;2023-03-26T19:08:30;8.60;60.70
76293;DHT22;67256;51.154;4.164;2023-03-26T19:10:57;8.50;60.80
76293;DHT22;67256;51.154;4.164;2023-03-26T19:13:27;8.60;61.00
76293;DHT22;67256;51.154;4.164;2023-03-26T19:15:54;8.70;61.30
76293;DHT22;67256;51.154;4.164;2023-03-26T19:18:25;8.70;61.40
76293;DHT22;67256;51.154;4.164;2023-03-26T19:20:56;8.70;61.40
76293;DHT22;67256;51.154;4.164;2023-03-26T19:23:32;8.60;62.00
76293;DHT22;67256;51.154;4.164;2023-03-26T19:26:02;8.60;61.80
76293;DHT22;67256;51.154;4.164;2023-03-26T19:31:59;8.70;60.20
76293;DHT22;67256;51.154;4.164;2023-03-26T19:33:57;8.50;59.40
76293;DHT22;67256;51.154;4.164;2023-03-26T19:36:26;8.50;59.10
76293;DHT22;67256;51.154;4.164;2023-03-26T19:39:11;8.40;59.10
76293;DHT22;67256;51.154;4.164;2023-03-26T19:41:42;8.40;59.40
76293;DHT22;67256;51.154;4.164;2023-03-26T19:44:19;8.30;57.20
76293;DHT22;67256;51.154;4.164;2023-03-26T19:46:46;8.30;56.50
76293;DHT22;67256;51.154;4.164;2023-03-26T19:52:33;8.30;55.80
76293;DHT22;67256;51.154;4.164;2023-03-26T19:55:02;8.20;56.50
76293;DHT22;67256;51.154;4.164;2023-03-26T19:57:30;8.30;56.30
76293;DHT22;67256;51.154;4.164;2023-03-26T19:59:58;8.20;56.10
76293;DHT22;67256;51.154;4.164;2023-03-26T20:02:25;8.20;56.60
76293;DHT22;67256;51.154;4.164;2023-03-26T20:04:51;8.40;56.50
76293;DHT22;67256;51.154;4.164;2023-03-26T20:07:19;8.30;56.20
76293;DHT22;67256;51.154;4.164;2023-03-26T20:09:47;8.30;56.30
76293;DHT22;67256;51.154;4.164;2023-03-26T20:12:14;8.40;56.30
76293;DHT22;67256;51.154;4.164;2023-03-26T20:14:41;8.40;57.30
76293;DHT22;67256;51.154;4.164;2023-03-26T20:17:18;8.40;58.70
76293;DHT22;67256;51.154;4.164;2023-03-26T20:19:47;8.50;60.00
76293;DHT22;67256;51.154;4.164;2023-03-26T20:22:15;8.50;60.80
76293;DHT22;67256;51.154;4.164;2023-03-26T20:24:43;8.40;61.80
76293;DHT22;67256;51.154;4.164;2023-03-26T20:27:12;8.40;62.20
76293;DHT22;67256;51.154;4.164;2023-03-26T20:29:39;8.40;62.00
76293;DHT22;67256;51.154;4.164;2023-03-26T20:32:20;8.30;61.90
76293;DHT22;67256;51.154;4.164;2023-03-26T20:34:48;8.30;62.30
76293;DHT22;67256;51.154;4.164;2023-03-26T20:37:16;8.10;61.20
76293;DHT22;67256;51.154;4.164;2023-03-26T20:39:42;8.00;60.60
76293;DHT22;67256;51.154;4.164;2023-03-26T20:42:08;7.90;60.90
76293;DHT22;67256;51.154;4.164;2023-03-26T20:44:36;7.90;61.10
76293;DHT22;67256;51.154;4.164;2023-03-26T20:47:03;7.90;61.60
76293;DHT22;67256;51.154;4.164;2023-03-26T20:49:29;7.90;61.90
76293;DHT22;67256;51.154;4.164;2023-03-26T20:51:57;7.90;61.70
76293;DHT22;67256;51.154;4.164;2023-03-26T20:54:25;7.90;61.50
76293;DHT22;67256;51.154;4.164;2023-03-26T20:56:52;7.90;61.80
76293;DHT22;67256;51.154;4.164;2023-03-26T20:59:24;8.00;61.60
76293;DHT22;67256;51.154;4.164;2023-03-26T21:01:53;8.00;61.60
76293;DHT22;67256;51.154;4.164;2023-03-26T21:04:19;8.00;60.70
76293;DHT22;67256;51.154;4.164;2023-03-26T21:06:46;7.90;61.10
76293;DHT22;67256;51.154;4.164;2023-03-26T21:09:14;7.70;61.70
76293;DHT22;67256;51.154;4.164;2023-03-26T21:12:04;7.70;62.00
76293;DHT22;67256;51.154;4.164;2023-03-26T21:14:33;7.70;62.10
76293;DHT22;67256;51.154;4.164;2023-03-26T21:17:03;7.70;61.90
76293;DHT22;67256;51.154;4.164;2023-03-26T21:19:30;7.70;61.50
76293;DHT22;67256;51.154;4.164;2023-03-26T21:29:54;7.50;60.60
76293;DHT22;67256;51.154;4.164;2023-03-26T21:32:21;7.60;60.00
76293;DHT22;67256;51.154;4.164;2023-03-26T21:34:48;7.70;59.30
76293;DHT22;67256;51.154;4.164;2023-03-26T21:37:14;7.60;59.20
76293;DHT22;67256;51.154;4.164;2023-03-26T21:39:42;7.60;58.70
76293;DHT22;67256;51.154;4.164;2023-03-26T21:42:10;7.50;58.50
76293;DHT22;67256;51.154;4.164;2023-03-26T21:44:37;7.50;58.20
76293;DHT22;67256;51.154;4.164;2023-03-26T21:47:03;7.40;58.40
76293;DHT22;67256;51.154;4.164;2023-03-26T21:49:32;7.40;58.10
76293;DHT22;67256;51.154;4.164;2023-03-26T21:51:58;7.50;58.30
76293;DHT22;67256;51.154;4.164;2023-03-26T21:54:26;7.40;57.70
76293;DHT22;67256;51.154;4.164;2023-03-26T21:57:02;7.40;57.90
76293;DHT22;67256;51.154;4.164;2023-03-26T22:00:05;7.40;58.20
76293;DHT22;67256;51.154;4.164;2023-03-26T22:02:53;7.60;57.90
76293;DHT22;67256;51.154;4.164;2023-03-26T22:08:29;7.60;57.40
76293;DHT22;67256;51.154;4.164;2023-03-26T22:10:56;7.40;58.00
76293;DHT22;67256;51.154;4.164;2023-03-26T22:13:21;7.60;57.90
76293;DHT22;67256;51.154;4.164;2023-03-26T22:15:47;7.60;57.60
76293;DHT22;67256;51.154;4.164;2023-03-26T22:18:14;7.80;57.80
76293;DHT22;67256;51.154;4.164;2023-03-26T22:20:40;7.70;57.80
76293;DHT22;67256;51.154;4.164;2023-03-26T22:23:10;7.70;57.80
76293;DHT22;67256;51.154;4.164;2023-03-26T22:25:37;7.80;58.10
76293;DHT22;67256;51.154;4.164;2023-03-26T22:28:04;7.80;57.80
76293;DHT22;67256;51.154;4.164;2023-03-26T22:30:31;7.90;57.80
76293;DHT22;67256;51.154;4.164;2023-03-26T22:32:57;7.80;57.70
76293;DHT22;67256;51.154;4.164;2023-03-26T22:35:24;7.60;58.20
76293;DHT22;67256;51.154;4.164;2023-03-26T22:37:50;7.50;58.60
76293;DHT22;67256;51.154;4.164;2023-03-26T22:40:17;7.70;58.80
76293;DHT22;67256;51.154;4.164;2023-03-26T22:42:43;7.80;58.50